Time;durP1;ratioP1;P1;durP2;ratioP2;P2;SDS_P1;SDS_P2;PMS_P1;PMS_P2;Temp;Humidity;BMP_temperature;BMP_pressure;BME280_temperature;BME280_humidity;BME280_pressure;Samples;Min_cycle;Max_cycle;Signal;HPM_P1;HPM_P2
2023/01/24 00:00:45;;;;;;;0.73;0.70;;;15.80;69.00;;;;;;6214490;23;20437;-70
2023/01/24 00:03:13;;;;;;;0.50;0.50;;;15.70;69.10;;;;;;6214508;23;20001;-70
2023/01/24 00:05:39;;;;;;;1.42;0.75;;;15.70;69.10;;;;;;6188499;23;20005;-70
2023/01/24 00:08:05;;;;;;;0.77;0.70;;;15.70;69.10;;;;;;6214514;23;20005;-70
2023/01/24 00:10:31;;;;;;;0.73;0.70;;;15.70;69.20;;;;;;6212722;23;20005;-70
2023/01/24 00:12:57;;;;;;;0.75;0.60;;;15.60;69.30;;;;;;6214553;23;20429;-70
2023/01/24 00:15:23;;;;;;;0.52;0.52;;;15.60;69.20;;;;;;6188149;23;20058;-70
2023/01/24 00:17:48;;;;;;;0.63;0.50;;;15.60;69.50;;;;;;6212491;23;20008;-70
2023/01/24 00:20:15;;;;;;;0.55;0.55;;;15.60;69.40;;;;;;6214356;23;20000;-70
2023/01/24 00:22:41;;;;;;;0.50;0.50;;;15.60;69.60;;;;;;6212985;23;20111;-70
2023/01/24 00:25:07;;;;;;;0.85;0.60;;;15.60;69.60;;;;;;6212283;23;20040;-70
2023/01/24 00:27:34;;;;;;;1.02;0.65;;;15.50;69.80;;;;;;6188080;23;20009;-70
2023/01/24 00:30:00;;;;;;;0.50;0.50;;;15.50;69.80;;;;;;6212825;23;20444;-70
2023/01/24 00:32:25;;;;;;;0.93;0.70;;;15.50;70.00;;;;;;6212846;23;20011;-70
2023/01/24 00:34:51;;;;;;;0.80;0.70;;;15.50;70.00;;;;;;6214483;23;20005;-70
2023/01/24 00:37:16;;;;;;;0.50;0.50;;;15.40;70.10;;;;;;6214316;23;20005;-70
2023/01/24 00:39:42;;;;;;;0.60;0.57;;;15.40;70.10;;;;;;6214026;23;20126;-70
2023/01/24 00:42:08;;;;;;;0.52;0.52;;;15.50;70.30;;;;;;6187794;23;20519;-70
2023/01/24 00:44:33;;;;;;;1.60;0.70;;;15.40;70.40;;;;;;6212794;23;20031;-70
2023/01/24 00:46:59;;;;;;;0.60;0.60;;;15.40;70.40;;;;;;6187798;23;20004;-70
2023/01/24 00:49:24;;;;;;;0.52;0.52;;;15.30;70.50;;;;;;6162880;23;20001;-70
2023/01/24 00:51:50;;;;;;;0.60;0.60;;;15.30;70.60;;;;;;6215773;23;20000;-70
2023/01/24 00:54:16;;;;;;;2.50;0.63;;;15.30;70.70;;;;;;6214488;23;20000;-70
2023/01/24 00:56:41;;;;;;;0.70;0.70;;;15.30;70.90;;;;;;6215920;23;20433;-70
2023/01/24 00:59:07;;;;;;;0.50;0.50;;;15.30;71.00;;;;;;6215986;23;20472;-70
2023/01/24 01:01:33;;;;;;;0.60;0.60;;;15.20;71.00;;;;;;6216279;23;20003;-70
2023/01/24 01:03:58;;;;;;;0.93;0.50;;;15.20;71.20;;;;;;6214636;23;20015;-70
2023/01/24 01:06:24;;;;;;;0.85;0.60;;;15.20;71.10;;;;;;6189459;23;20001;-70
2023/01/24 01:08:50;;;;;;;0.68;0.60;;;15.20;71.40;;;;;;6214257;23;20001;-70
2023/01/24 01:11:16;;;;;;;4.57;0.52;;;15.20;71.30;;;;;;6214475;23;20010;-69
2023/01/24 01:13:42;;;;;;;0.73;0.60;;;15.20;71.40;;;;;;6189687;23;20263;-70
2023/01/24 01:16:10;;;;;;;0.60;0.60;;;15.20;71.50;;;;;;6189439;23;20091;-70
2023/01/24 01:18:36;;;;;;;0.47;0.43;;;15.20;71.60;;;;;;6214401;23;20047;-70
2023/01/24 01:21:02;;;;;;;0.43;0.43;;;15.10;71.60;;;;;;6189160;23;19996;-70
2023/01/24 01:23:27;;;;;;;1.08;0.82;;;15.10;71.50;;;;;;6189176;23;20410;-70
2023/01/24 01:25:53;;;;;;;0.73;0.60;;;15.10;71.60;;;;;;6214430;23;20001;-69
2023/01/24 01:28:19;;;;;;;0.70;0.70;;;15.10;72.10;;;;;;6214452;23;20001;-69
2023/01/24 01:30:51;;;;;;;0.50;0.50;;;15.10;72.10;;;;;;6214401;23;20001;-70
2023/01/24 01:33:17;;;;;;;1.73;0.55;;;15.10;71.80;;;;;;6214437;23;20004;-69
2023/01/24 01:35:42;;;;;;;1.35;0.60;;;15.10;71.70;;;;;;6214316;23;20100;-70
2023/01/24 01:38:08;;;;;;;2.95;0.60;;;15.00;71.70;;;;;;6189196;23;20411;-70
2023/01/24 01:40:34;;;;;;;2.92;0.70;;;15.00;71.70;;;;;;6215837;23;20038;-70
2023/01/24 01:42:59;;;;;;;0.82;0.40;;;15.00;71.80;;;;;;6189203;23;20039;-70
2023/01/24 01:45:45;;;;;;;2.08;0.50;;;15.00;71.80;;;;;;6215831;23;20074;-70
2023/01/24 01:48:44;;;;;;;0.95;0.70;;;15.00;71.80;;;;;;6215960;23;20096;-70
2023/01/24 01:51:20;;;;;;;0.57;0.57;;;15.00;71.90;;;;;;6188883;23;20009;-70
2023/01/24 01:53:57;;;;;;;2.25;0.60;;;15.00;71.90;;;;;;6214378;23;20008;-70
2023/01/24 01:56:38;;;;;;;0.60;0.60;;;14.90;71.90;;;;;;6213994;23;20001;-70
2023/01/24 01:59:07;;;;;;;0.60;0.60;;;14.90;71.80;;;;;;6213965;23;20429;-70
2023/01/24 02:01:32;;;;;;;0.60;0.60;;;14.90;71.90;;;;;;6214057;23;20008;-70
2023/01/24 02:04:05;;;;;;;0.93;0.60;;;14.90;71.70;;;;;;6189090;23;20004;-69
2023/01/24 02:06:37;;;;;;;1.38;0.93;;;14.90;71.70;;;;;;6188676;23;20326;-70
2023/01/24 02:09:03;;;;;;;0.55;0.50;;;14.90;72.00;;;;;;6214256;23;20425;-69
2023/01/24 02:11:40;;;;;;;0.60;0.60;;;14.90;72.00;;;;;;6214061;23;20084;-70
2023/01/24 02:16:52;;;;;;;0.50;0.50;;;14.80;71.80;;;;;;6193175;23;20016;-70
2023/01/24 02:19:44;;;;;;;1.02;0.63;;;14.80;71.90;;;;;;6213533;23;20009;-70
2023/01/24 02:22:18;;;;;;;0.60;0.60;;;14.80;71.90;;;;;;6198227;23;20027;-70
2023/01/24 02:24:48;;;;;;;0.57;0.57;;;14.80;72.80;;;;;;6189871;23;20012;-70
2023/01/24 02:27:14;;;;;;;0.63;0.63;;;14.80;71.80;;;;;;6189198;23;20467;-69
2023/01/24 02:29:39;;;;;;;2.22;0.70;;;14.80;72.00;;;;;;6215429;23;20072;-69
2023/01/24 02:32:08;;;;;;;0.40;0.40;;;14.80;72.00;;;;;;6188752;23;20028;-70
2023/01/24 02:34:34;;;;;;;0.65;0.55;;;14.70;72.00;;;;;;6214970;23;20016;-69
2023/01/24 02:37:01;;;;;;;0.50;0.50;;;14.70;72.00;;;;;;6213856;23;20008;-70
2023/01/24 02:39:32;;;;;;;0.60;0.60;;;14.70;72.10;;;;;;6188860;23;20107;-69
2023/01/24 02:42:04;;;;;;;0.45;0.45;;;14.70;72.00;;;;;;6189607;23;20004;-69
2023/01/24 02:44:53;;;;;;;0.63;0.57;;;14.70;72.00;;;;;;6189221;23;20054;-69
2023/01/24 02:47:18;;;;;;;0.60;0.60;;;14.70;71.80;;;;;;6213845;23;20015;-70
2023/01/24 02:49:44;;;;;;;0.57;0.57;;;14.70;72.10;;;;;;6188523;23;20000;-70
2023/01/24 02:54:54;;;;;;;0.70;0.70;;;14.70;72.10;;;;;;6213916;23;20012;-69
2023/01/24 03:00:06;;;;;;;0.68;0.60;;;14.60;71.90;;;;;;6213879;23;20090;-70
2023/01/24 03:02:32;;;;;;;0.60;0.60;;;14.70;72.00;;;;;;6187948;23;20074;-70
2023/01/24 03:04:57;;;;;;;3.63;0.73;;;14.70;71.80;;;;;;6213626;23;19996;-69
2023/01/24 03:07:23;;;;;;;1.08;0.63;;;14.60;72.10;;;;;;6213453;23;20004;-69
2023/01/24 03:09:49;;;;;;;0.60;0.60;;;14.60;71.70;;;;;;6188376;23;20008;-69
2023/01/24 03:36:52;;;;;;;0.60;0.60;;;14.50;72.00;;;;;;6213612;23;20014;-69
2023/01/24 03:42:02;;;;;;;0.60;0.60;;;14.50;72.10;;;;;;6213246;23;20084;-70
2023/01/24 03:44:28;;;;;;;0.60;0.60;;;14.50;72.10;;;;;;6212917;23;20950;-69
2023/01/24 03:46:54;;;;;;;0.57;0.57;;;14.50;72.00;;;;;;6214507;23;20020;-69
2023/01/24 03:54:49;;;;;;;0.75;0.50;;;14.50;71.80;;;;;;6122887;23;20017;-70
2023/01/24 03:57:15;;;;;;;0.57;0.57;;;14.50;71.90;;;;;;6097948;23;20010;-69
2023/01/24 03:59:41;;;;;;;0.63;0.63;;;14.50;71.90;;;;;;6122648;23;20006;-70
2023/01/24 04:02:06;;;;;;;0.50;0.50;;;14.40;71.90;;;;;;6122649;23;20006;-70
2023/01/24 04:05:12;;;;;;;0.50;0.50;;;14.40;71.80;;;;;;6122386;23;20387;-69
2023/01/24 04:07:18;;;;;;;0.52;0.52;;;14.40;71.80;;;;;;6122212;23;20010;-70
2023/01/24 04:09:43;;;;;;;0.40;0.40;;;14.40;72.00;;;;;;6122783;23;20006;-70
2023/01/24 04:12:09;;;;;;;0.50;0.50;;;14.40;71.90;;;;;;6098250;23;20006;-69
2023/01/24 04:14:35;;;;;;;0.63;0.50;;;14.40;72.20;;;;;;6122489;23;20016;-70
2023/01/24 04:17:00;;;;;;;1.25;0.57;;;14.40;71.90;;;;;;6122410;23;20006;-69
2023/01/24 04:19:26;;;;;;;0.50;0.50;;;14.40;71.70;;;;;;6122437;23;20002;-69
2023/01/24 04:21:52;;;;;;;0.50;0.50;;;14.40;71.70;;;;;;6098229;23;20009;-69
2023/01/24 04:24:17;;;;;;;0.60;0.60;;;14.40;71.90;;;;;;6122380;23;20022;-69
2023/01/24 04:26:43;;;;;;;0.43;0.43;;;14.40;71.80;;;;;;6124005;23;20077;-69
2023/01/24 04:29:09;;;;;;;0.50;0.50;;;14.30;71.70;;;;;;6154035;23;20084;-69
2023/01/24 04:31:34;;;;;;;0.63;0.63;;;14.40;71.80;;;;;;6214646;23;20001;-69
2023/01/24 04:34:00;;;;;;;0.60;0.60;;;14.30;71.70;;;;;;6214975;23;20001;-69
2023/01/24 04:36:25;;;;;;;0.88;0.55;;;14.30;71.70;;;;;;6214737;23;20005;-69
2023/01/24 04:38:51;;;;;;;0.90;0.70;;;14.30;71.70;;;;;;6189748;23;20008;-69
2023/01/24 04:41:17;;;;;;;2.22;0.93;;;14.30;71.70;;;;;;6216139;23;20076;-69
2023/01/24 04:43:42;;;;;;;0.70;0.70;;;14.30;71.70;;;;;;6216272;23;20366;-69
2023/01/24 04:46:08;;;;;;;0.50;0.50;;;14.30;71.80;;;;;;6216122;23;20467;-70
2023/01/24 04:48:34;;;;;;;0.60;0.60;;;14.30;71.80;;;;;;6189640;23;20005;-69
2023/01/24 04:51:00;;;;;;;1.30;0.73;;;14.30;71.70;;;;;;6214904;23;20001;-70
2023/01/24 04:53:26;;;;;;;0.50;0.50;;;14.30;71.90;;;;;;6214570;23;20001;-69
2023/01/24 04:55:51;;;;;;;0.60;0.60;;;14.30;71.90;;;;;;6214618;23;20011;-69
2023/01/24 04:58:17;;;;;;;0.63;0.63;;;14.20;71.70;;;;;;6216026;23;20005;-69
2023/01/24 05:00:42;;;;;;;0.50;0.50;;;14.20;71.90;;;;;;6189512;23;20023;-69
2023/01/24 05:03:08;;;;;;;0.68;0.60;;;14.20;72.00;;;;;;6214650;23;20394;-70
2023/01/24 05:05:34;;;;;;;0.60;0.60;;;14.20;71.90;;;;;;6215936;23;20441;-69
2023/01/24 05:07:59;;;;;;;0.65;0.65;;;14.20;72.00;;;;;;6189603;23;20008;-69
2023/01/24 05:10:25;;;;;;;0.43;0.43;;;14.20;72.10;;;;;;6214425;23;20348;-69
2023/01/24 05:12:51;;;;;;;0.73;0.73;;;14.10;72.00;;;;;;6216112;23;20552;-69
2023/01/24 05:15:17;;;;;;;1.38;0.73;;;14.10;72.10;;;;;;6215643;23;20437;-69
2023/01/24 05:17:44;;;;;;;0.70;0.70;;;14.10;72.10;;;;;;6214284;23;20001;-69
2023/01/24 05:20:10;;;;;;;1.17;0.63;;;14.10;72.10;;;;;;6214477;23;19997;-69
2023/01/24 05:22:35;;;;;;;0.60;0.60;;;14.10;72.10;;;;;;6214288;23;20310;-69
2023/01/24 05:25:01;;;;;;;0.60;0.60;;;14.10;72.20;;;;;;6214266;23;20016;-69
2023/01/24 05:27:27;;;;;;;0.70;0.70;;;14.10;72.20;;;;;;6214146;23;20001;-69
2023/01/24 05:29:52;;;;;;;0.60;0.60;;;14.10;72.30;;;;;;6214249;23;20004;-69
2023/01/24 05:32:18;;;;;;;0.60;0.60;;;14.10;72.20;;;;;;6215821;23;20012;-70
2023/01/24 05:34:44;;;;;;;0.73;0.73;;;14.10;72.40;;;;;;6215890;23;20008;-70
2023/01/24 05:37:09;;;;;;;0.63;0.63;;;14.10;72.40;;;;;;6215459;23;20332;-70
2023/01/24 05:39:35;;;;;;;0.70;0.70;;;14.10;72.40;;;;;;6215687;23;20499;-70
2023/01/24 05:42:00;;;;;;;0.70;0.70;;;14.10;72.40;;;;;;6215481;23;20000;-70
2023/01/24 05:44:26;;;;;;;0.77;0.77;;;14.10;72.40;;;;;;6214245;23;20441;-70
2023/01/24 05:46:52;;;;;;;0.60;0.60;;;14.00;72.30;;;;;;6189555;23;19996;-70
2023/01/24 05:49:17;;;;;;;0.70;0.70;;;14.00;72.30;;;;;;6214173;23;20004;-70
2023/01/24 05:51:43;;;;;;;0.93;0.60;;;14.00;72.30;;;;;;6214239;23;20019;-70
2023/01/24 05:54:09;;;;;;;0.70;0.70;;;14.00;72.40;;;;;;6215875;23;20043;-69
2023/01/24 05:56:34;;;;;;;0.60;0.60;;;14.00;72.40;;;;;;6213715;23;20001;-69
2023/01/24 05:59:01;;;;;;;0.68;0.68;;;14.00;72.50;;;;;;6215660;23;20028;-69
2023/01/24 06:01:27;;;;;;;0.60;0.60;;;14.00;72.50;;;;;;6214142;23;20039;-69
2023/01/24 06:03:53;;;;;;;0.60;0.60;;;14.00;72.50;;;;;;6214240;23;20004;-69
2023/01/24 06:06:22;;;;;;;1.27;0.70;;;14.00;72.50;;;;;;6189177;23;20004;-69
2023/01/24 06:08:48;;;;;;;0.50;0.50;;;14.00;72.50;;;;;;6214198;23;20051;-69
2023/01/24 06:11:17;;;;;;;2.05;0.70;;;14.00;72.50;;;;;;6213879;23;20421;-69
2023/01/24 06:13:43;;;;;;;0.57;0.57;;;14.00;72.70;;;;;;6189738;23;20023;-70
2023/01/24 06:16:16;;;;;;;1.10;0.80;;;14.00;72.60;;;;;;6213576;23;20075;-69
2023/01/24 06:18:42;;;;;;;1.05;0.90;;;14.00;72.60;;;;;;6213715;23;20011;-69
2023/01/24 06:21:21;;;;;;;0.60;0.60;;;14.00;72.60;;;;;;6214112;23;20076;-69
2023/01/24 06:23:47;;;;;;;0.82;0.75;;;14.00;72.70;;;;;;6213726;23;20032;-69
2023/01/24 06:26:13;;;;;;;0.88;0.60;;;14.00;72.80;;;;;;6213663;23;20433;-69
2023/01/24 06:28:39;;;;;;;0.80;0.80;;;14.00;72.70;;;;;;6215601;23;20008;-69
2023/01/24 06:31:12;;;;;;;0.70;0.70;;;14.10;72.70;;;;;;6213782;23;20348;-69
2023/01/24 06:33:52;;;;;;;;;;;14.00;72.60;;;;;;6215884;23;20457;-69
2023/01/24 06:36:36;;;;;;;0.70;0.70;;;14.00;72.70;;;;;;6215353;23;19944;-69
2023/01/24 06:39:02;;;;;;;0.93;0.60;;;14.00;72.80;;;;;;6213715;23;20027;-69
2023/01/24 06:41:28;;;;;;;0.77;0.60;;;14.00;72.80;;;;;;6213486;23;20349;-69
2023/01/24 06:43:53;;;;;;;1.50;0.70;;;14.00;72.90;;;;;;6215001;23;20019;-69
2023/01/24 06:46:19;;;;;;;0.68;0.68;;;14.00;72.90;;;;;;6213648;23;20103;-69
2023/01/24 06:48:45;;;;;;;0.70;0.70;;;14.00;72.80;;;;;;6213135;23;20001;-69
2023/01/24 06:51:16;;;;;;;0.65;0.63;;;14.00;72.90;;;;;;6188547;23;20012;-69
2023/01/24 06:53:42;;;;;;;0.73;0.73;;;14.00;72.90;;;;;;6214955;23;20330;-70
2023/01/24 06:56:08;;;;;;;1.23;1.17;;;14.00;72.80;;;;;;6213233;23;20011;-70
2023/01/24 06:58:34;;;;;;;1.35;1.25;;;14.00;72.30;;;;;;6188904;23;20008;-70
2023/01/24 07:00:59;;;;;;;0.95;0.95;;;14.00;71.60;;;;;;6213619;23;20000;-70
2023/01/24 07:03:25;;;;;;;1.17;1.10;;;14.00;71.30;;;;;;6215166;23;20035;-70
2023/01/24 07:05:51;;;;;;;1.25;1.25;;;14.00;70.90;;;;;;6213525;23;20055;-70
2023/01/24 07:08:19;;;;;;;1.20;1.10;;;14.00;70.80;;;;;;6215100;23;20031;-70
2023/01/24 07:10:45;;;;;;;1.63;1.30;;;14.00;70.70;;;;;;6213246;23;20004;-70
2023/01/24 07:13:10;;;;;;;1.13;1.10;;;14.00;70.60;;;;;;6212353;23;20001;-70
2023/01/24 07:15:36;;;;;;;1.85;1.30;;;14.00;70.50;;;;;;6212227;23;20004;-70
2023/01/24 07:18:08;;;;;;;1.27;1.27;;;14.10;70.40;;;;;;6187184;23;20032;-70
2023/01/24 07:20:34;;;;;;;1.45;1.35;;;14.00;70.30;;;;;;6212091;23;20000;-70
2023/01/24 07:23:00;;;;;;;1.35;1.30;;;14.10;70.30;;;;;;6211941;23;20392;-70
2023/01/24 07:25:26;;;;;;;1.30;1.20;;;14.10;70.30;;;;;;6213548;23;20322;-69
2023/01/24 07:27:52;;;;;;;8.70;1.65;;;14.10;70.40;;;;;;6162578;23;20024;-70
2023/01/24 07:30:17;;;;;;;16.27;3.45;;;14.10;70.40;;;;;;6213370;23;20043;-70
2023/01/24 07:32:43;;;;;;;14.07;2.90;;;14.10;70.80;;;;;;6211511;23;20024;-70
2023/01/24 07:35:09;;;;;;;14.98;2.70;;;14.10;70.80;;;;;;6212021;23;20016;-70
2023/01/24 07:37:35;;;;;;;10.20;3.05;;;14.10;70.80;;;;;;6212444;23;20102;-70
2023/01/24 07:40:00;;;;;;;8.68;2.65;;;14.10;70.80;;;;;;6212744;23;20009;-70
2023/01/24 07:42:26;;;;;;;8.20;2.58;;;14.10;70.70;;;;;;6212253;23;20011;-70
2023/01/24 07:44:53;;;;;;;7.07;2.65;;;14.10;70.50;;;;;;6212859;23;20068;-70
2023/01/24 07:47:19;;;;;;;5.53;2.25;;;14.10;70.40;;;;;;6211704;23;20009;-70
2023/01/24 07:49:45;;;;;;;8.77;2.63;;;14.10;70.20;;;;;;6211436;23;20058;-70
2023/01/24 07:52:11;;;;;;;7.18;2.40;;;14.10;70.20;;;;;;6213623;23;20043;-70
2023/01/24 07:54:37;;;;;;;11.43;2.97;;;14.10;70.10;;;;;;6211647;23;19997;-70
2023/01/24 07:57:03;;;;;;;11.55;3.38;;;14.10;70.10;;;;;;6211862;23;20027;-70
2023/01/24 07:59:28;;;;;;;10.20;2.80;;;14.10;70.10;;;;;;6212003;23;20519;-70
2023/01/24 08:01:54;;;;;;;8.15;2.53;;;14.10;70.00;;;;;;6214480;23;20031;-70
2023/01/24 08:04:19;;;;;;;6.40;2.40;;;14.10;69.90;;;;;;6213144;23;20047;-70
2023/01/24 08:09:29;;;;;;;10.13;2.42;;;14.20;69.90;;;;;;6213288;23;20373;-70
2023/01/24 08:11:55;;;;;;;5.13;2.60;;;14.10;69.80;;;;;;6214313;23;20001;-70
2023/01/24 08:14:21;;;;;;;6.65;2.95;;;14.10;69.70;;;;;;6188059;23;20001;-70
2023/01/24 08:16:48;;;;;;;9.07;2.65;;;14.10;69.70;;;;;;6187821;23;20011;-70
2023/01/24 08:19:13;;;;;;;9.63;2.55;;;14.10;69.70;;;;;;6214288;23;20011;-70
2023/01/24 08:21:39;;;;;;;5.25;2.30;;;14.10;69.70;;;;;;6212695;23;20005;-70
2023/01/24 08:24:05;;;;;;;5.85;2.08;;;14.10;69.60;;;;;;6212924;23;20084;-70
2023/01/24 08:26:31;;;;;;;4.65;2.20;;;14.10;69.70;;;;;;6187665;23;20001;-70
2023/01/24 08:28:56;;;;;;;4.57;2.30;;;14.10;69.60;;;;;;6187568;23;20004;-70
2023/01/24 08:31:22;;;;;;;9.57;2.38;;;14.10;69.50;;;;;;6214430;23;20012;-70
2023/01/24 08:33:47;;;;;;;4.85;2.20;;;14.10;69.50;;;;;;6212785;23;20011;-70
2023/01/24 08:36:13;;;;;;;7.13;1.98;;;14.10;69.50;;;;;;6212873;23;20027;-70
2023/01/24 08:38:39;;;;;;;7.13;2.38;;;14.10;69.40;;;;;;6213956;23;20044;-70
2023/01/24 08:41:05;;;;;;;6.95;2.65;;;14.20;69.50;;;;;;6214286;23;20314;-70
2023/01/24 08:43:31;;;;;;;5.82;2.28;;;14.20;69.50;;;;;;6213061;23;20000;-70
2023/01/24 08:45:56;;;;;;;8.43;2.53;;;14.10;69.30;;;;;;6214156;23;20001;-70
2023/01/24 08:48:22;;;;;;;8.75;2.00;;;14.10;69.40;;;;;;6187749;23;20395;-70
2023/01/24 08:50:47;;;;;;;6.18;2.10;;;14.20;69.30;;;;;;6213800;23;20403;-70
2023/01/24 08:53:14;;;;;;;4.80;1.90;;;14.20;69.40;;;;;;6214146;23;20036;-70
2023/01/24 08:55:40;;;;;;;6.28;2.22;;;14.20;69.40;;;;;;6212785;23;20009;-70
2023/01/24 08:58:06;;;;;;;4.10;1.98;;;14.10;69.30;;;;;;6187780;23;20051;-70
2023/01/24 09:00:31;;;;;;;4.93;1.92;;;14.20;69.30;;;;;;6212799;23;20008;-70
2023/01/24 09:03:01;;;;;;;6.05;2.42;;;14.20;69.30;;;;;;6187435;23;20325;-70
2023/01/24 09:05:30;;;;;;;4.47;2.20;;;14.10;69.20;;;;;;6188341;23;20007;-70
2023/01/24 09:07:56;;;;;;;4.35;2.00;;;14.10;69.20;;;;;;6212664;23;20004;-70
2023/01/24 09:10:21;;;;;;;4.57;2.13;;;14.20;69.30;;;;;;6188328;23;20128;-70
2023/01/24 09:12:47;;;;;;;6.35;2.22;;;14.20;69.30;;;;;;6215674;23;20378;-70
2023/01/24 09:15:13;;;;;;;3.75;1.80;;;14.20;69.20;;;;;;6216049;23;20434;-69
2023/01/24 09:17:39;;;;;;;3.30;2.08;;;14.20;69.20;;;;;;6189527;23;20000;-70
2023/01/24 09:20:06;;;;;;;3.50;2.00;;;14.20;69.20;;;;;;6215766;23;19997;-70
2023/01/24 09:22:32;;;;;;;2.88;1.88;;;14.20;69.10;;;;;;6214860;23;20005;-70
2023/01/24 09:24:58;;;;;;;2.03;1.60;;;14.20;69.10;;;;;;6214346;23;20012;-70
2023/01/24 09:27:23;;;;;;;2.47;1.85;;;14.20;69.10;;;;;;6216017;23;19997;-70
2023/01/24 09:29:49;;;;;;;4.22;1.90;;;14.20;69.10;;;;;;6189569;23;20005;-70
2023/01/24 09:32:16;;;;;;;2.47;1.67;;;14.20;69.10;;;;;;6214567;23;20069;-70
2023/01/24 09:34:46;;;;;;;3.28;1.70;;;14.20;69.10;;;;;;6215635;23;20004;-70
2023/01/24 09:37:15;;;;;;;2.92;1.70;;;14.20;69.10;;;;;;6215927;23;20012;-70
2023/01/24 09:39:41;;;;;;;2.60;1.73;;;14.10;69.10;;;;;;6215840;23;20007;-70
2023/01/24 09:42:15;;;;;;;3.67;2.00;;;14.10;69.00;;;;;;6189445;23;20036;-70
2023/01/24 09:45:06;;;;;;;2.67;1.80;;;14.20;69.10;;;;;;6214206;23;20004;-70
2023/01/24 09:47:40;;;;;;;3.72;1.60;;;14.20;69.00;;;;;;6215955;23;20059;-69
2023/01/24 09:50:09;;;;;;;2.72;1.58;;;14.10;69.00;;;;;;6214026;23;20005;-70
2023/01/24 09:52:41;;;;;;;2.17;1.70;;;14.20;69.10;;;;;;6190077;23;20007;-70
2023/01/24 09:55:38;;;;;;;5.43;1.85;;;14.20;69.00;;;;;;6190022;23;20011;-70
2023/01/24 09:58:28;;;;;;;3.72;2.03;;;14.20;69.00;;;;;;6193299;23;20027;-70
2023/01/24 10:00:54;;;;;;;1.70;1.40;;;14.20;69.00;;;;;;6214473;23;20001;-69
2023/01/24 10:03:23;;;;;;;2.92;1.77;;;14.10;69.00;;;;;;6188939;23;20441;-69
2023/01/24 10:05:53;;;;;;;3.08;1.60;;;14.10;69.00;;;;;;6213961;23;19997;-70
2023/01/24 10:08:58;;;;;;;2.63;1.50;;;14.10;68.90;;;;;;6214308;23;20076;-70
2023/01/24 10:11:42;;;;;;;3.28;1.50;;;14.20;69.00;;;;;;6215756;23;20512;-69
2023/01/24 10:14:17;;;;;;;2.30;1.52;;;14.10;68.90;;;;;;6215582;23;20097;-70
2023/01/24 10:16:45;;;;;;;2.13;1.50;;;14.10;68.90;;;;;;6215382;23;20008;-70
2023/01/24 10:19:38;;;;;;;1.98;1.48;;;14.20;69.00;;;;;;6215161;23;20005;-70
2023/01/24 10:22:19;;;;;;;2.33;1.67;;;14.20;68.90;;;;;;6214050;23;20051;-70
2023/01/24 10:24:52;;;;;;;2.08;1.73;;;14.10;68.80;;;;;;6213826;23;20507;-70
2023/01/24 10:27:38;;;;;;;2.13;1.63;;;14.20;68.90;;;;;;6189281;23;20532;-70
2023/01/24 10:30:17;;;;;;;3.40;1.40;;;14.10;68.80;;;;;;6189292;23;19997;-70
2023/01/24 10:32:43;;;;;;;2.67;1.20;;;14.20;68.80;;;;;;6213779;23;20119;-70
2023/01/24 10:35:36;;;;;;;1.70;1.20;;;14.10;68.80;;;;;;6213712;23;20398;-70
2023/01/24 10:38:04;;;;;;;2.90;1.40;;;14.10;68.80;;;;;;6213577;23;20011;-70
2023/01/24 10:40:30;;;;;;;1.73;1.20;;;14.10;68.70;;;;;;6189208;23;20004;-70
2023/01/24 10:42:55;;;;;;;1.98;1.60;;;14.10;68.80;;;;;;6188746;23;20020;-70
2023/01/24 10:45:33;;;;;;;3.38;1.50;;;14.20;68.80;;;;;;6215244;23;20466;-70
2023/01/24 10:48:04;;;;;;;1.92;1.23;;;14.10;68.80;;;;;;6213252;23;20344;-70
2023/01/24 10:50:34;;;;;;;1.58;1.10;;;14.20;68.80;;;;;;6213770;23;20023;-70
2023/01/24 10:53:18;;;;;;;1.80;1.30;;;14.10;68.70;;;;;;6213630;23;20355;-70
2023/01/24 10:55:44;;;;;;;1.40;1.05;;;14.10;68.70;;;;;;6188456;23;20031;-70
2023/01/24 10:58:26;;;;;;;2.25;1.38;;;14.20;68.80;;;;;;6163312;23;20012;-70
2023/01/24 11:00:56;;;;;;;1.38;1.25;;;14.20;68.70;;;;;;6213777;23;20027;-70
2023/01/24 11:03:25;;;;;;;1.27;1.10;;;14.10;68.70;;;;;;6213588;23;20000;-70
2023/01/24 11:05:53;;;;;;;1.67;1.48;;;14.10;68.70;;;;;;6214777;23;20477;-70
2023/01/24 11:08:23;;;;;;;2.63;1.40;;;14.10;68.70;;;;;;6188862;23;20503;-70
2023/01/24 11:10:53;;;;;;;2.60;1.60;;;14.10;68.70;;;;;;6163958;23;20055;-70
2023/01/24 11:13:19;;;;;;;2.42;1.10;;;14.10;68.70;;;;;;6214856;23;20012;-70
2023/01/24 11:15:47;;;;;;;2.45;1.13;;;14.10;68.70;;;;;;6214528;23;20310;-70
2023/01/24 11:18:19;;;;;;;1.20;1.10;;;14.10;68.70;;;;;;6188650;23;20016;-70
2023/01/24 11:20:45;;;;;;;1.33;1.00;;;14.10;68.60;;;;;;6189073;23;20004;-70
2023/01/24 11:23:16;;;;;;;1.92;1.15;;;14.10;68.70;;;;;;6213017;23;20009;-70
2023/01/24 11:25:56;;;;;;;2.35;1.10;;;14.10;68.70;;;;;;6214847;23;20028;-70
2023/01/24 11:28:29;;;;;;;1.30;1.20;;;14.10;68.60;;;;;;6213300;23;20007;-70
2023/01/24 11:31:05;;;;;;;1.63;1.10;;;14.10;68.60;;;;;;6188748;23;20028;-70
2023/01/24 11:34:07;;;;;;;1.20;1.00;;;14.10;68.60;;;;;;6188765;23;20075;-70
2023/01/24 11:36:54;;;;;;;1.08;1.02;;;14.20;68.60;;;;;;6214817;23;20079;-70
2023/01/24 11:39:30;;;;;;;1.27;1.17;;;14.10;68.60;;;;;;6214405;23;20012;-70
2023/01/24 11:41:59;;;;;;;1.33;1.23;;;14.10;68.60;;;;;;6212946;23;20000;-70
2023/01/24 11:44:39;;;;;;;1.58;1.35;;;14.10;68.60;;;;;;6213438;23;20031;-70
2023/01/24 11:47:18;;;;;;;1.05;0.95;;;14.10;68.60;;;;;;6213174;23;20001;-70
2023/01/24 11:50:06;;;;;;;1.13;1.00;;;14.10;68.60;;;;;;6188959;23;20473;-69
2023/01/24 11:52:45;;;;;;;1.20;1.10;;;14.10;68.60;;;;;;6213241;23;20062;-70
2023/01/24 11:55:28;;;;;;;1.35;1.20;;;14.10;68.50;;;;;;6213105;23;20000;-70
2023/01/24 11:58:31;;;;;;;1.08;1.05;;;14.10;68.60;;;;;;6214442;23;20004;-70
2023/01/24 12:01:37;;;;;;;1.08;1.00;;;14.10;68.50;;;;;;6212544;23;20322;-69
2023/01/24 12:04:26;;;;;;;1.17;0.90;;;14.10;68.60;;;;;;6213834;23;20001;-69
2023/01/24 12:07:08;;;;;;;1.05;1.05;;;14.10;68.50;;;;;;6213458;23;20001;-70
2023/01/24 12:10:01;;;;;;;1.20;1.13;;;14.10;68.50;;;;;;6213150;23;20005;-70
2023/01/24 12:12:37;;;;;;;1.17;1.08;;;14.10;68.50;;;;;;6213465;23;20008;-70
2023/01/24 12:15:09;;;;;;;1.00;1.00;;;14.10;68.50;;;;;;6163360;23;20009;-70
2023/01/24 12:17:53;;;;;;;1.55;1.10;;;14.10;68.50;;;;;;6214413;23;20001;-70
2023/01/24 12:20:44;;;;;;;2.00;1.35;;;14.10;68.50;;;;;;6214245;23;20001;-70
2023/01/24 12:23:23;;;;;;;1.55;1.10;;;14.10;68.50;;;;;;6212778;23;20013;-70
2023/01/24 12:25:49;;;;;;;1.25;1.17;;;14.10;68.50;;;;;;6213011;23;20001;-70
2023/01/24 12:28:24;;;;;;;1.20;1.10;;;14.10;68.50;;;;;;6187792;23;20005;-69
2023/01/24 12:30:52;;;;;;;1.52;1.10;;;14.10;68.50;;;;;;6189649;23;20016;-70
2023/01/24 12:33:28;;;;;;;1.05;1.00;;;14.10;68.50;;;;;;6188038;23;20087;-70
2023/01/24 12:36:00;;;;;;;1.17;1.00;;;14.10;68.50;;;;;;6214181;23;20384;-69
2023/01/24 12:38:59;;;;;;;0.98;0.98;;;14.10;68.50;;;;;;6188193;23;20011;-69
2023/01/24 12:41:35;;;;;;;1.42;1.33;;;14.10;68.40;;;;;;6185709;23;20004;-70
2023/01/24 12:44:10;;;;;;;1.50;1.00;;;14.10;68.50;;;;;;6212672;23;20072;-70
2023/01/24 12:46:47;;;;;;;1.00;0.95;;;14.10;68.50;;;;;;6164960;23;20341;-70
2023/01/24 12:49:45;;;;;;;1.15;0.93;;;14.10;68.50;;;;;;6214859;23;20004;-70
2023/01/24 12:52:43;;;;;;;0.93;0.90;;;14.10;68.50;;;;;;6214705;23;20008;-70
2023/01/24 12:55:13;;;;;;;1.00;1.00;;;14.10;68.50;;;;;;6105080;23;20033;-70
2023/01/24 12:57:48;;;;;;;1.20;1.10;;;14.10;68.50;;;;;;6123527;23;20029;-70
2023/01/24 13:00:21;;;;;;;0.90;0.90;;;14.10;68.50;;;;;;6122852;23;20002;-70
2023/01/24 13:03:24;;;;;;;1.20;1.10;;;14.10;68.50;;;;;;6123424;23;20072;-70
2023/01/24 13:05:55;;;;;;;1.27;1.13;;;14.10;68.50;;;;;;6124457;23;20073;-70
2023/01/24 13:08:49;;;;;;;0.95;0.90;;;14.10;68.40;;;;;;6124298;23;20005;-70
2023/01/24 13:11:22;;;;;;;1.13;1.02;;;14.10;68.50;;;;;;6124097;23;20161;-70
2023/01/24 13:14:02;;;;;;;1.17;1.08;;;14.10;68.40;;;;;;6123384;23;20006;-69
2023/01/24 13:16:37;;;;;;;1.55;1.00;;;14.10;68.50;;;;;;6124129;23;20080;-69
2023/01/24 13:19:23;;;;;;;1.75;1.30;;;14.10;68.40;;;;;;6124235;23;20438;-70
2023/01/24 13:22:09;;;;;;;0.90;0.90;;;14.10;68.40;;;;;;6124233;23;20033;-70
2023/01/24 13:25:13;;;;;;;0.90;0.90;;;14.10;68.40;;;;;;6123972;23;20017;-70
2023/01/24 13:28:11;;;;;;;1.60;1.02;;;14.10;68.40;;;;;;6123953;23;20085;-69
2023/01/24 13:30:55;;;;;;;1.05;1.05;;;14.10;68.40;;;;;;6099368;23;20060;-69
2023/01/24 13:33:46;;;;;;;1.05;1.05;;;14.10;69.40;;;;;;6214517;23;20004;-70
2023/01/24 13:36:14;;;;;;;0.98;0.93;;;14.10;68.50;;;;;;6194267;23;20444;-70
2023/01/24 13:38:43;;;;;;;0.90;0.90;;;14.10;68.40;;;;;;6189848;23;20009;-70
2023/01/24 13:41:38;;;;;;;1.00;0.80;;;14.10;68.40;;;;;;6215424;23;20008;-70
2023/01/24 13:44:06;;;;;;;1.15;1.05;;;14.10;68.40;;;;;;6190340;23;20008;-70
2023/01/24 13:46:41;;;;;;;0.95;0.95;;;14.10;68.40;;;;;;6215585;23;19996;-70
2023/01/24 13:49:31;;;;;;;0.90;0.90;;;14.10;68.40;;;;;;6215750;23;20005;-70